Time;durP1;ratioP1;P1;durP2;ratioP2;P2;SDS_P1;SDS_P2;PMS_P1;PMS_P2;Temp;Humidity;BMP_temperature;BMP_pressure;BME280_temperature;BME280_humidity;BME280_pressure;Samples;Min_cycle;Max_cycle;Signal;HPM_P1;HPM_P2
2021/03/14 00:02:12;;;;;;;;;;;;;;;18.08;62.49;101259.16;5090726;28;1303;-75
2021/03/14 00:04:39;;;;;;;;;;;;;;;18.07;62.57;101254.78;5091000;28;1134;-74
2021/03/14 00:07:05;;;;;;;;;;;;;;;18.05;62.48;101259.28;5090520;28;1228;-74
2021/03/14 00:09:32;;;;;;;;;;;;;;;18.05;62.23;101254.00;5090751;28;1075;-74
2021/03/14 00:11:58;;;;;;;;;;;;;;;18.05;62.55;101243.47;5072115;28;1243;-75
2021/03/14 00:14:24;;;;;;;;;;;;;;;18.05;62.54;101244.34;5090124;28;1024;-74
2021/03/14 00:16:52;;;;;;;;;;;;;;;18.05;62.53;101240.84;5090187;28;1318;-75
2021/03/14 00:19:18;;;;;;;;;;;;;;;18.02;62.57;101250.56;5090267;28;1890;-74
2021/03/14 00:21:45;;;;;;;;;;;;;;;18.01;62.54;101251.53;5089903;28;1338;-74
2021/03/14 00:24:11;;;;;;;;;;;;;;;18.01;62.63;101238.34;5090090;28;1011;-74
2021/03/14 00:26:37;;;;;;;;;;;;;;;18.01;62.62;101243.59;5089294;28;1299;-74
2021/03/14 00:29:04;;;;;;;;;;;;;;;18.01;62.59;101234.84;5088522;28;1134;-74
2021/03/14 00:31:30;;;;;;;;;;;;;;;18.00;62.43;101233.13;5088038;28;1293;-74
2021/03/14 00:33:59;;;;;;;;;;;;;;;18.00;62.31;101226.06;5089549;28;1135;-74
2021/03/14 00:36:25;;;;;;;;;;;;;;;17.99;62.60;101226.16;5087593;28;1247;-74
2021/03/14 00:38:51;;;;;;;;;;;;;;;17.99;62.60;101223.53;5090468;28;944;-74
2021/03/14 00:41:18;;;;;;;;;;;;;;;17.99;62.66;101219.09;5088580;28;1905;-73
2021/03/14 00:43:44;;;;;;;;;;;;;;;17.97;62.63;101215.66;5088551;28;1038;-74
2021/03/14 00:46:11;;;;;;;;;;;;;;;17.99;62.60;101219.09;5089824;28;1337;-74
2021/03/14 00:48:37;;;;;;;;;;;;;;;17.99;62.54;101228.78;5089687;28;1432;-74
2021/03/14 00:51:05;;;;;;;;;;;;;;;17.97;62.54;101226.22;5089660;28;1236;-75
2021/03/14 00:53:31;;;;;;;;;;;;;;;17.95;62.77;101222.81;5071262;28;1316;-75
2021/03/14 00:55:58;;;;;;;;;;;;;;;17.97;62.68;101220.94;5089630;28;1301;-74
2021/03/14 00:58:24;;;;;;;;;;;;;;;17.95;62.56;101207.00;5087808;28;1112;-75
2021/03/14 01:00:50;;;;;;;;;;;;;;;17.94;62.63;101207.03;5089400;28;1973;-74
2021/03/14 01:03:16;;;;;;;;;;;;;;;17.95;62.61;101207.00;5089675;28;1022;-75
2021/03/14 01:05:43;;;;;;;;;;;;;;;17.95;62.52;101200.84;5087758;28;1409;-75
2021/03/14 01:08:09;;;;;;;;;;;;;;;17.93;62.54;101203.56;5089426;28;793;-75
2021/03/14 01:10:35;;;;;;;;;;;;;;;17.92;62.68;101196.59;5089647;28;1261;-74
2021/03/14 01:13:01;;;;;;;;;;;;;;;17.94;62.52;101200.00;5089235;28;995;-74
2021/03/14 01:15:28;;;;;;;;;;;;;;;17.93;62.67;101197.44;5087858;28;1361;-74
2021/03/14 01:17:54;;;;;;;;;;;;;;;17.94;62.55;101199.13;5088081;28;935;-74
2021/03/14 01:20:22;;;;;;;;;;;;;;;17.93;62.57;101200.09;5087807;28;1913;-74
2021/03/14 01:22:49;;;;;;;;;;;;;;;17.92;62.53;101198.38;5089236;28;801;-74
2021/03/14 01:25:15;;;;;;;;;;;;;;;17.91;62.50;101194.88;5087835;28;1270;-74
2021/03/14 01:27:45;;;;;;;;;;;;;;;17.92;62.33;101190.47;5087721;28;1304;-74
2021/03/14 01:30:13;;;;;;;;;;;;;;;17.92;62.34;101196.59;5070890;28;1214;-75
2021/03/14 01:32:39;;;;;;;;;;;;;;;17.90;62.41;101187.88;5087637;28;1306;-75
2021/03/14 01:35:06;;;;;;;;;;;;;;;17.89;62.34;101183.56;5087379;28;1184;-75
2021/03/14 01:37:32;;;;;;;;;;;;;;;17.91;62.37;101180.84;5088584;28;1200;-75
2021/03/14 01:39:58;;;;;;;;;;;;;;;17.90;62.39;101177.34;5070724;28;1906;-75
2021/03/14 01:42:26;;;;;;;;;;;;;;;17.91;62.17;101176.41;5088653;28;1287;-75
2021/03/14 01:44:52;;;;;;;;;;;;;;;17.89;62.28;101175.66;5089043;28;909;-75
2021/03/14 01:47:24;;;;;;;;;;;;;;;17.88;62.27;101167.78;5086604;28;1711;-75
2021/03/14 01:49:51;;;;;;;;;;;;;;;17.88;62.10;101173.94;5087001;28;1456;-75
2021/03/14 01:52:18;;;;;;;;;;;;;;;17.89;62.22;101167.75;5088628;28;1220;-75
2021/03/14 01:54:44;;;;;;;;;;;;;;;17.89;62.11;101172.16;5087110;28;1592;-75
2021/03/14 01:57:10;;;;;;;;;;;;;;;17.86;62.01;101159.13;5087409;28;1327;-76
2021/03/14 01:59:37;;;;;;;;;;;;;;;17.86;62.13;101165.25;5088979;28;1964;-75
2021/03/14 02:02:04;;;;;;;;;;;;;;;17.84;62.21;101159.19;5088863;28;1307;-75
2021/03/14 02:04:31;;;;;;;;;;;;;;;17.85;62.18;101163.53;5088927;28;977;-76
2021/03/14 02:06:57;;;;;;;;;;;;;;;17.84;62.03;101161.81;5088867;28;1240;-75
2021/03/14 02:09:23;;;;;;;;;;;;;;;17.85;62.02;101160.03;5090728;28;1148;-77
2021/03/14 02:11:52;;;;;;;;;;;;;;;17.87;62.11;101150.28;5092976;28;1323;-76
2021/03/14 02:14:18;;;;;;;;;;;;;;;17.86;61.91;101151.22;5074551;28;1254;-76
2021/03/14 02:16:45;;;;;;;;;;;;;;;17.84;62.06;101145.16;5092549;28;1291;-75
2021/03/14 02:19:30;;;;;;;;;;;;;;;17.84;62.13;101137.25;5092684;28;1980;-76
2021/03/14 02:21:58;;;;;;;;;;;;;;;17.82;61.98;101139.09;5092551;28;1317;-76
2021/03/14 02:24:27;;;;;;;;;;;;;;;17.84;62.15;101135.47;5092858;28;1053;-76
2021/03/14 02:27:03;;;;;;;;;;;;;;;17.86;61.96;101132.75;5092509;28;1236;-75
2021/03/14 02:29:30;;;;;;;;;;;;;;;17.82;61.86;101137.31;5093125;28;1367;-76
2021/03/14 02:31:57;;;;;;;;;;;;;;;17.83;61.87;101128.50;5092545;28;1295;-76
2021/03/14 02:34:29;;;;;;;;;;;;;;;17.81;61.84;101119.78;5090575;28;1138;-76
2021/03/14 02:36:56;;;;;;;;;;;;;;;17.80;61.51;101123.38;5073886;28;1319;-75
2021/03/14 02:39:24;;;;;;;;;;;;;;;17.81;61.34;101118.97;5090812;28;1989;-75
2021/03/14 02:41:55;;;;;;;;;;;;;;;17.81;61.07;101106.63;5090721;28;1419;-75
2021/03/14 02:44:23;;;;;;;;;;;;;;;17.81;60.98;101109.25;5090723;28;1206;-75
2021/03/14 02:46:50;;;;;;;;;;;;;;;17.81;60.90;101098.72;5090305;28;1236;-75
2021/03/14 02:49:18;;;;;;;;;;;;;;;17.80;60.71;101104.94;5091704;28;1488;-75
2021/03/14 02:51:45;;;;;;;;;;;;;;;17.79;60.71;101097.94;5092062;28;1338;-75
2021/03/14 02:54:12;;;;;;;;;;;;;;;17.73;60.70;101074.50;5092059;28;1002;-75
2021/03/14 02:56:38;;;;;;;;;;;;;;;17.78;60.74;101088.31;5090144;28;1257;-75
2021/03/14 02:59:06;;;;;;;;;;;;;;;17.79;60.54;101079.50;5090309;28;1257;-75
2021/03/14 03:01:32;;;;;;;;;;;;;;;17.78;60.46;101083.03;5091540;28;1913;-76
2021/03/14 03:04:00;;;;;;;;;;;;;;;17.78;60.63;101088.31;5091879;28;1133;-76
2021/03/14 03:06:27;;;;;;;;;;;;;;;17.78;60.42;101092.75;5091589;28;1315;-76
2021/03/14 03:08:53;;;;;;;;;;;;;;;17.79;60.37;101089.16;5091708;28;924;-75
2021/03/14 03:11:20;;;;;;;;;;;;;;;17.76;60.47;101082.28;5091500;28;1186;-75
2021/03/14 03:13:48;;;;;;;;;;;;;;;17.77;60.42;101089.25;5091253;28;1136;-75
2021/03/14 03:16:15;;;;;;;;;;;;;;;17.76;60.49;101082.28;5091369;28;1299;-75
2021/03/14 03:18:42;;;;;;;;;;;;;;;17.76;60.23;101087.53;5091391;28;1068;-74
2021/03/14 03:21:10;;;;;;;;;;;;;;;17.76;60.25;101076.13;5091048;28;1918;-75
2021/03/14 03:23:36;;;;;;;;;;;;;;;17.75;60.25;101070.00;5089693;28;1310;-75
2021/03/14 03:26:04;;;;;;;;;;;;;;;17.74;60.11;101073.59;5090213;28;1381;-74
2021/03/14 03:28:31;;;;;;;;;;;;;;;17.73;60.21;101066.59;5091665;28;986;-76
2021/03/14 03:30:57;;;;;;;;;;;;;;;17.74;60.44;101068.31;5073087;28;1521;-75
2021/03/14 03:33:23;;;;;;;;;;;;;;;17.73;60.15;101063.97;5091079;28;1012;-76
2021/03/14 03:35:50;;;;;;;;;;;;;;;17.73;60.26;101060.47;5091003;28;1264;-77
2021/03/14 03:38:16;;;;;;;;;;;;;;;17.74;59.85;101063.06;5091255;28;1146;-77
2021/03/14 03:40:42;;;;;;;;;;;;;;;17.73;60.18;101073.66;5089587;28;1914;-75
2021/03/14 03:43:08;;;;;;;;;;;;;;;17.74;60.18;101062.19;5089621;28;1051;-75
2021/03/14 03:45:43;;;;;;;;;;;;;;;17.73;60.06;101069.25;5091320;28;1236;-75
2021/03/14 03:48:13;;;;;;;;;;;;;;;17.75;60.05;101070.00;5089286;28;1646;-74
2021/03/14 03:50:46;;;;;;;;;;;;;;;17.73;60.18;101068.38;5090678;28;1311;-74
2021/03/14 03:53:13;;;;;;;;;;;;;;;17.72;60.14;101077.25;5089518;28;1091;-74
2021/03/14 03:55:40;;;;;;;;;;;;;;;17.72;60.03;101070.16;5089138;28;1236;-74
2021/03/14 03:58:09;;;;;;;;;;;;;;;17.71;60.04;101079.00;5090649;28;770;-75
2021/03/14 04:00:35;;;;;;;;;;;;;;;17.71;60.03;101086.06;5088952;28;1910;-74
2021/03/14 04:03:02;;;;;;;;;;;;;;;17.72;59.96;101082.50;5089485;28;730;-76
2021/03/14 04:05:30;;;;;;;;;;;;;;;17.72;60.10;101080.69;5088436;28;1379;-74
2021/03/14 04:07:56;;;;;;;;;;;;;;;17.69;60.04;101074.75;5088937;28;821;-74
2021/03/14 04:10:24;;;;;;;;;;;;;;;17.71;59.95;101084.28;5090700;28;1272;-74
2021/03/14 04:12:51;;;;;;;;;;;;;;;17.70;60.04;101084.34;5090502;28;758;-74
2021/03/14 04:15:19;;;;;;;;;;;;;;;17.69;60.02;101093.19;5090715;28;1255;-75
2021/03/14 04:17:46;;;;;;;;;;;;;;;17.68;60.07;101089.69;5088838;28;1016;-75
2021/03/14 04:20:26;;;;;;;;;;;;;;;17.66;60.04;101088.91;5090265;28;1909;-75
2021/03/14 04:22:54;;;;;;;;;;;;;;;17.70;60.03;101100.16;5090423;28;845;-75
2021/03/14 04:25:21;;;;;;;;;;;;;;;17.67;60.01;101095.03;5090559;28;1375;-75
2021/03/14 04:27:49;;;;;;;;;;;;;;;17.69;60.03;101087.91;5088934;28;818;-75
2021/03/14 04:30:20;;;;;;;;;;;;;;;17.66;59.89;101088.06;5088630;28;1250;-75
2021/03/14 04:32:47;;;;;;;;;;;;;;;17.66;59.89;101083.63;5089175;28;1024;-75
2021/03/14 04:35:13;;;;;;;;;;;;;;;17.66;60.04;101088.06;5090184;28;1180;-75
2021/03/14 04:37:40;;;;;;;;;;;;;;;17.66;59.79;101083.63;5089809;28;1350;-75
2021/03/14 04:40:08;;;;;;;;;;;;;;;17.66;60.06;101077.53;5088245;28;1905;-75
2021/03/14 04:42:34;;;;;;;;;;;;;;;17.65;59.80;101084.56;5089185;28;1225;-74
2021/03/14 04:45:03;;;;;;;;;;;;;;;17.61;59.71;101071.59;5090113;28;1039;-73
2021/03/14 04:47:30;;;;;;;;;;;;;;;17.65;59.71;101087.19;5088325;28;1224;-73
2021/03/14 04:49:57;;;;;;;;;;;;;;;17.65;59.84;101087.19;5088320;28;1190;-76
2021/03/14 04:52:23;;;;;;;;;;;;;;;17.64;59.66;101090.75;5089634;28;1201;-74
2021/03/14 04:54:50;;;;;;;;;;;;;;;17.64;59.67;101090.75;5089975;28;936;-73
2021/03/14 04:57:19;;;;;;;;;;;;;;;17.65;59.89;101092.47;5089503;28;1173;-73
2021/03/14 04:59:46;;;;;;;;;;;;;;;17.64;59.63;101087.25;5088104;28;1902;-74
2021/03/14 05:02:13;;;;;;;;;;;;;;;17.63;59.91;101083.75;5088307;28;1284;-74
2021/03/14 05:04:42;;;;;;;;;;;;;;;17.63;59.75;101091.66;5089614;28;1086;-75
2021/03/14 05:07:10;;;;;;;;;;;;;;;17.61;59.66;101096.16;5089248;28;1226;-77
2021/03/14 05:09:37;;;;;;;;;;;;;;;17.61;59.78;101096.16;5089627;28;1189;-77
2021/03/14 05:12:05;;;;;;;;;;;;;;;17.62;59.86;101095.25;5089713;28;1252;-75
2021/03/14 05:14:33;;;;;;;;;;;;;;;17.62;59.83;101094.38;5089460;28;1111;-75
2021/03/14 05:16:59;;;;;;;;;;;;;;;17.63;59.79;101098.75;5089277;28;1412;-76
2021/03/14 05:19:26;;;;;;;;;;;;;;;17.61;59.94;101101.44;5089296;28;1103;-75
2021/03/14 05:21:57;;;;;;;;;;;;;;;17.61;59.72;101101.44;5089143;28;1901;-76
2021/03/14 05:24:24;;;;;;;;;;;;;;;17.61;59.94;101093.53;5089519;28;1142;-75
2021/03/14 05:26:50;;;;;;;;;;;;;;;17.60;59.69;101099.72;5089157;28;1229;-75
2021/03/14 05:29:17;;;;;;;;;;;;;;;17.61;59.67;101100.56;5087970;28;1146;-76
2021/03/14 05:31:44;;;;;;;;;;;;;;;17.62;59.91;101112.84;5089116;28;1232;-75
2021/03/14 05:34:14;;;;;;;;;;;;;;;17.59;59.98;101103.28;5089261;28;870;-75
2021/03/14 05:36:43;;;;;;;;;;;;;;;17.60;59.76;101110.25;5089522;28;1314;-75
2021/03/14 05:39:10;;;;;;;;;;;;;;;17.59;59.55;101107.72;5090244;28;834;-75
2021/03/14 05:41:37;;;;;;;;;;;;;;;17.59;59.76;101108.56;5088475;28;1914;-75
2021/03/14 05:44:04;;;;;;;;;;;;;;;17.58;59.72;101108.63;5089372;28;1063;-75
2021/03/14 05:46:31;;;;;;;;;;;;;;;17.58;59.70;101106.00;5093503;28;1209;-75
2021/03/14 05:48:57;;;;;;;;;;;;;;;17.57;59.89;101110.41;5092028;28;1360;-76
2021/03/14 05:51:28;;;;;;;;;;;;;;;17.58;59.64;101112.13;5091847;28;1294;-75
2021/03/14 05:53:55;;;;;;;;;;;;;;;17.56;59.80;101108.72;5093546;28;938;-76
2021/03/14 05:56:22;;;;;;;;;;;;;;;17.57;59.75;101114.84;5093128;28;1329;-76
2021/03/14 05:58:49;;;;;;;;;;;;;;;17.56;59.93;101113.97;5093312;28;975;-76
2021/03/14 06:01:17;;;;;;;;;;;;;;;17.56;59.65;101113.97;5093141;28;1905;-76
2021/03/14 06:03:44;;;;;;;;;;;;;;;17.56;59.58;101124.50;5092908;28;1137;-75
2021/03/14 06:06:11;;;;;;;;;;;;;;;17.57;59.63;101128.00;5091502;28;1311;-75
2021/03/14 06:08:38;;;;;;;;;;;;;;;17.56;59.75;101128.91;5092972;28;1149;-76
2021/03/14 06:11:05;;;;;;;;;;;;;;;17.55;59.70;101138.59;5092652;28;1318;-76
2021/03/14 06:13:32;;;;;;;;;;;;;;;17.56;59.81;101136.81;5091222;28;1457;-75
2021/03/14 06:15:58;;;;;;;;;;;;;;;17.56;59.39;101142.94;5092844;28;1335;-75
2021/03/14 06:18:25;;;;;;;;;;;;;;;17.56;59.40;101158.75;5091609;28;1051;-75
2021/03/14 06:20:52;;;;;;;;;;;;;;;17.54;59.54;101163.19;5092545;28;1980;-75
2021/03/14 06:23:19;;;;;;;;;;;;;;;17.55;60.00;101170.22;5092805;28;1095;-75
2021/03/14 06:25:48;;;;;;;;;;;;;;;17.63;59.66;101168.06;5092307;28;1236;-73
2021/03/14 06:28:14;;;;;;;;;;;;;;;17.58;59.44;101170.06;5092157;28;1054;-74
2021/03/14 06:30:41;;;;;;;;;;;;;;;17.62;59.41;101166.38;5090666;28;1256;-74
2021/03/14 06:33:08;;;;;;;;;;;;;;;17.63;59.93;101183.88;5092193;28;794;-72
2021/03/14 06:35:45;;;;;;;;;;;;;;;17.65;59.63;101189.09;5091494;28;1252;-72
2021/03/14 06:38:19;;;;;;;;;;;;;;;17.66;59.52;101190.81;5091572;28;1048;-73
2021/03/14 06:40:46;;;;;;;;;;;;;;;17.63;59.03;101186.50;5091728;28;1977;-73
2021/03/14 06:43:14;;;;;;;;;;;;;;;17.60;58.97;101178.75;5091716;28;1010;-74
2021/03/14 06:45:41;;;;;;;;;;;;;;;17.60;58.88;101181.38;5084299;28;1458;-73
2021/03/14 06:48:08;;;;;;;;;;;;;;;17.61;59.00;101196.28;5074419;28;1514;-73
2021/03/14 06:50:37;;;;;;;;;;;;;;;17.59;59.05;101200.78;5079788;28;1284;-72
2021/03/14 06:53:10;;;;;;;;;;;;;;;17.60;58.93;101196.34;5069388;28;1294;-72
2021/03/14 06:55:37;;;;;;;;;;;;;;;17.58;58.91;101201.69;5069799;28;1314;-75
2021/03/14 06:58:22;;;;;;;;;;;;;;;17.57;58.84;101213.13;5070293;28;773;-72
2021/03/14 07:01:08;;;;;;;;;;;;;;;17.59;58.88;101224.47;5078091;28;2011;-73
2021/03/14 07:03:37;;;;;;;;;;;;;;;17.59;59.05;101224.47;5071662;28;1240;-76
2021/03/14 07:06:16;;;;;;;;;;;;;;;17.60;58.94;101226.16;5053686;28;1260;-73
2021/03/14 07:08:42;;;;;;;;;;;;;;;17.59;58.97;101234.16;5069684;28;1699;-75
2021/03/14 07:11:09;;;;;;;;;;;;;;;17.57;59.14;101236.84;5069778;28;1285;-78
2021/03/14 07:13:36;;;;;;;;;;;;;;;17.59;58.91;101236.78;5069496;28;1273;-72
2021/03/14 07:16:04;;;;;;;;;;;;;;;17.59;59.09;101245.56;5071170;28;1482;-74
2021/03/14 07:18:35;;;;;;;;;;;;;;;17.59;59.09;101271.03;5080857;28;1121;-73
2021/03/14 07:21:21;;;;;;;;;;;;;;;17.59;58.97;101281.56;5070926;28;1909;-73
2021/03/14 07:23:47;;;;;;;;;;;;;;;17.60;58.88;101273.59;5070894;28;1066;-72
2021/03/14 07:26:13;;;;;;;;;;;;;;;17.60;58.84;101284.13;5070867;28;1320;-73
2021/03/14 07:28:39;;;;;;;;;;;;;;;17.59;58.82;101290.34;5069286;28;1467;-72
2021/03/14 07:31:05;;;;;;;;;;;;;;;17.59;58.81;101287.69;5070698;28;1240;-73
2021/03/14 07:33:32;;;;;;;;;;;;;;;17.61;59.22;101291.13;5074451;28;1616;-72
2021/03/14 07:35:58;;;;;;;;;;;;;;;17.61;58.64;101301.66;5076907;28;1296;-73
2021/03/14 07:38:24;;;;;;;;;;;;;;;17.60;58.63;101294.66;5070819;28;1086;-73
2021/03/14 07:40:50;;;;;;;;;;;;;;;17.61;58.65;101290.25;5070354;28;1989;-73
2021/03/14 07:43:17;;;;;;;;;;;;;;;17.58;58.72;101293.88;5069251;28;1413;-72
2021/03/14 07:45:43;;;;;;;;;;;;;;;17.58;58.50;101293.03;5070277;28;1327;-72
2021/03/14 07:48:10;;;;;;;;;;;;;;;17.58;58.49;101287.75;5070665;28;1208;-72
2021/03/14 07:50:45;;;;;;;;;;;;;;;17.64;58.88;101296.25;5070236;28;1370;-69
2021/03/14 07:53:13;;;;;;;;;;;;;;;17.63;59.24;101305.06;5070428;28;762;-69
2021/03/14 07:55:45;;;;;;;;;;;;;;;17.64;59.32;101312.06;5069505;28;1319;-69
2021/03/14 07:58:12;;;;;;;;;;;;;;;17.65;59.40;101312.91;5069896;28;1066;-69
2021/03/14 08:00:40;;;;;;;;;;;;;;;17.66;59.42;101315.47;5069923;28;1985;-69
2021/03/14 08:03:08;;;;;;;;;;;;;;;17.70;59.58;101327.59;5068833;28;820;-73
2021/03/14 08:05:37;;;;;;;;;;;;;;;17.87;59.71;101330.34;5069968;28;1261;-73
2021/03/14 08:08:04;;;;;;;;;;;;;;;17.80;58.70;101328.91;5068502;28;1138;-72
2021/03/14 08:10:40;;;;;;;;;;;;;;;17.80;59.34;101336.81;5068926;28;1275;-68
2021/03/14 08:13:07;;;;;;;;;;;;;;;17.80;59.04;101335.97;5077796;28;1244;-71
2021/03/14 08:15:34;;;;;;;;;;;;;;;17.75;59.00;101343.22;5089662;28;1370;-68
2021/03/14 08:18:03;;;;;;;;;;;;;;;17.72;59.09;101333.66;5089307;28;1202;-70
2021/03/14 08:20:38;;;;;;;;;;;;;;;17.70;59.00;101337.28;5088683;28;1991;-69
2021/03/14 08:23:05;;;;;;;;;;;;;;;17.70;59.02;101348.69;5084830;28;1280;-70
2021/03/14 08:25:36;;;;;;;;;;;;;;;17.73;59.15;101343.28;5087299;28;1299;-68
2021/03/14 08:28:21;;;;;;;;;;;;;;;17.72;59.09;101346.81;5070652;28;1844;-68
2021/03/14 08:30:51;;;;;;;;;;;;;;;17.70;58.97;101343.41;5086895;28;1268;-69
2021/03/14 08:33:17;;;;;;;;;;;;;;;17.71;59.05;101349.53;5088832;28;1296;-69
2021/03/14 08:35:48;;;;;;;;;;;;;;;17.71;59.35;101358.31;5088954;28;1425;-72
2021/03/14 08:38:33;;;;;;;;;;;;;;;17.72;59.41;101356.53;5089218;28;1306;-70
2021/03/14 08:41:17;;;;;;;;;;;;;;;17.72;59.56;101356.53;5087761;28;1909;-69
2021/03/14 08:43:44;;;;;;;;;;;;;;;17.73;59.62;101364.34;5088517;28;1229;-67
2021/03/14 08:46:10;;;;;;;;;;;;;;;17.75;59.67;101359.88;5088612;28;1284;-68
2021/03/14 08:48:36;;;;;;;;;;;;;;;17.75;59.47;101362.50;5069774;28;1576;-67
2021/03/14 08:51:04;;;;;;;;;;;;;;;17.75;59.72;101359.88;5087061;28;1362;-70
2021/03/14 08:53:32;;;;;;;;;;;;;;;17.75;59.53;101361.66;5068120;28;1295;-68
2021/03/14 08:55:59;;;;;;;;;;;;;;;17.89;60.49;101367.19;5087772;28;1247;-70
2021/03/14 08:58:27;;;;;;;;;;;;;;;17.91;60.79;101367.97;5084661;28;1264;-68
2021/03/14 09:01:07;;;;;;;;;;;;;;;17.88;59.41;101366.31;5088149;28;1981;-77
2021/03/14 09:03:41;;;;;;;;;;;;;;;17.85;58.93;101370.88;5085288;28;1299;-71
2021/03/14 09:06:10;;;;;;;;;;;;;;;17.83;58.92;101376.22;5085582;28;1279;-72
2021/03/14 09:08:36;;;;;;;;;;;;;;;17.82;59.50;101377.13;5088088;28;1241;-75
2021/03/14 09:11:03;;;;;;;;;;;;;;;17.81;59.08;101377.22;5088075;28;1370;-73
2021/03/14 09:13:29;;;;;;;;;;;;;;;17.82;59.23;101377.13;5087043;28;1292;-72
2021/03/14 09:15:55;;;;;;;;;;;;;;;17.83;59.16;101376.22;5088050;28;1299;-72
2021/03/14 09:18:25;;;;;;;;;;;;;;;17.84;59.12;101374.44;5087474;28;1181;-69
2021/03/14 09:20:59;;;;;;;;;;;;;;;17.84;59.27;101377.09;5087790;28;1967;-69
2021/03/14 09:23:25;;;;;;;;;;;;;;;17.84;59.35;101362.09;5086635;28;1283;-69
2021/03/14 09:25:52;;;;;;;;;;;;;;;17.85;59.68;101370.88;5086280;28;1326;-69
2021/03/14 09:28:18;;;;;;;;;;;;;;;17.86;59.41;101368.19;5088463;28;1221;-68
2021/03/14 09:30:44;;;;;;;;;;;;;;;17.94;60.46;101371.31;5085994;28;1315;-70
2021/03/14 09:33:12;;;;;;;;;;;;;;;17.94;60.52;101368.69;5087857;28;1091;-69
2021/03/14 09:35:42;;;;;;;;;;;;;;;17.90;59.80;101361.84;5086274;28;1311;-68
2021/03/14 09:38:09;;;;;;;;;;;;;;;17.86;60.89;101354.13;5085634;28;1229;-69
2021/03/14 09:40:39;;;;;;;;;;;;;;;17.93;60.03;101371.41;5088100;28;1922;-68
2021/03/14 09:43:06;;;;;;;;;;;;;;;17.91;60.33;101374.09;5083829;28;1330;-68
2021/03/14 09:45:32;;;;;;;;;;;;;;;17.89;60.48;101373.31;5086622;28;1392;-68
2021/03/14 09:48:19;;;;;;;;;;;;;;;17.88;60.33;101365.47;5087735;28;1229;-68
2021/03/14 09:50:45;;;;;;;;;;;;;;;17.88;60.35;101366.31;5075606;28;1396;-68
2021/03/14 09:53:12;;;;;;;;;;;;;;;18.12;61.90;101367.03;5088221;28;1201;-74
2021/03/14 09:55:41;;;;;;;;;;;;;;;18.09;60.57;101377.69;5087414;28;1330;-68
2021/03/14 09:58:08;;;;;;;;;;;;;;;18.04;61.16;101382.34;5083890;28;2120;-68
2021/03/14 10:00:35;;;;;;;;;;;;;;;18.03;61.39;101385.88;5086577;28;1925;-68
2021/03/14 10:03:03;;;;;;;;;;;;;;;18.12;61.46;101384.66;5085628;28;1189;-67
2021/03/14 10:05:40;;;;;;;;;;;;;;;18.07;61.11;101373.44;5084381;28;1357;-67
2021/03/14 10:08:07;;;;;;;;;;;;;;;18.02;61.22;101377.09;5085479;28;1317;-67
2021/03/14 10:10:37;;;;;;;;;;;;;;;17.99;61.99;101387.78;5087007;28;1216;-67
2021/03/14 10:13:23;;;;;;;;;;;;;;;18.17;62.39;101390.56;5085336;28;1280;-68
2021/03/14 10:15:50;;;;;;;;;;;;;;;18.17;61.59;101395.84;5086627;28;1246;-65
2021/03/14 10:18:17;;;;;;;;;;;;;;;18.08;60.76;101391.81;5087861;28;1052;-65
2021/03/14 10:20:44;;;;;;;;;;;;;;;18.02;60.74;101385.03;5088232;28;1991;-65
2021/03/14 10:23:11;;;;;;;;;;;;;;;17.95;60.68;101396.78;5088574;28;786;-65
2021/03/14 10:25:39;;;;;;;;;;;;;;;17.92;60.82;101401.31;5088150;28;1204;-65
2021/03/14 10:28:15;;;;;;;;;;;;;;;17.88;61.00;101400.59;5088361;28;854;-66
2021/03/14 10:30:42;;;;;;;;;;;;;;;17.88;60.97;101395.31;5088247;28;1339;-66
2021/03/14 10:33:13;;;;;;;;;;;;;;;17.87;60.63;101393.59;5090601;28;782;-64
2021/03/14 10:35:40;;;;;;;;;;;;;;;17.86;60.65;101402.44;5092222;28;1369;-65
2021/03/14 10:38:19;;;;;;;;;;;;;;;17.86;60.38;101402.44;5091857;28;1075;-65
2021/03/14 10:40:46;;;;;;;;;;;;;;;17.85;60.35;101406.00;5090242;28;1902;-64
2021/03/14 10:43:19;;;;;;;;;;;;;;;17.83;60.43;101420.16;5091881;28;1103;-65
2021/03/14 10:45:46;;;;;;;;;;;;;;;17.88;60.46;101410.28;5090164;28;1233;-66
2021/03/14 10:48:13;;;;;;;;;;;;;;;17.82;60.24;101406.13;5091423;28;1631;-64
2021/03/14 10:50:39;;;;;;;;;;;;;;;17.83;60.08;101410.47;5091723;28;1281;-64
2021/03/14 10:53:15;;;;;;;;;;;;;;;17.84;60.22;101416.63;5091496;28;1015;-65
2021/03/14 10:56:03;;;;;;;;;;;;;;;17.87;60.00;101412.03;5091632;28;1342;-65
2021/03/14 10:58:39;;;;;;;;;;;;;;;17.80;60.14;101407.97;5091309;28;1083;-65
2021/03/14 11:01:07;;;;;;;;;;;;;;;17.78;59.97;101417.72;5090041;28;1905;-65
2021/03/14 11:03:38;;;;;;;;;;;;;;;17.77;59.81;101413.38;5090029;28;993;-65
2021/03/14 11:06:10;;;;;;;;;;;;;;;17.75;59.97;101415.19;5091164;28;1372;-65
2021/03/14 11:08:45;;;;;;;;;;;;;;;17.78;59.81;101408.97;5091423;28;1054;-65
2021/03/14 11:11:11;;;;;;;;;;;;;;;17.76;59.67;101418.69;5091544;28;1188;-65
2021/03/14 11:13:38;;;;;;;;;;;;;;;17.75;59.92;101409.09;5089795;28;1074;-65
2021/03/14 11:16:05;;;;;;;;;;;;;;;17.76;59.79;101414.28;5089439;28;1244;-65
2021/03/14 11:18:32;;;;;;;;;;;;;;;17.73;59.80;101422.31;5091294;28;928;-65
2021/03/14 11:21:02;;;;;;;;;;;;;;;17.75;59.84;101415.19;5091206;28;1930;-64
2021/03/14 11:23:28;;;;;;;;;;;;;;;17.75;59.95;101414.38;5090827;28;1045;-65
2021/03/14 11:25:54;;;;;;;;;;;;;;;17.73;59.82;101414.41;5089687;28;1323;-65
2021/03/14 11:28:20;;;;;;;;;;;;;;;17.73;59.79;101411.78;5090758;28;1044;-65
2021/03/14 11:30:47;;;;;;;;;;;;;;;17.73;59.92;101416.19;5089907;28;1257;-64
2021/03/14 11:33:13;;;;;;;;;;;;;;;17.73;59.89;101417.06;5091328;28;1184;-64
2021/03/14 11:35:41;;;;;;;;;;;;;;;17.73;59.71;101417.06;5072946;28;1359;-64
2021/03/14 11:38:07;;;;;;;;;;;;;;;17.71;59.38;101429.44;5091094;28;801;-65
2021/03/14 11:40:34;;;;;;;;;;;;;;;17.70;59.62;101411.06;5090664;28;1988;-65
2021/03/14 11:43:00;;;;;;;;;;;;;;;17.70;59.41;101418.97;5071972;28;1608;-66
2021/03/14 11:45:26;;;;;;;;;;;;;;;17.71;59.54;101424.19;5091218;28;1279;-64
2021/03/14 11:47:53;;;;;;;;;;;;;;;17.71;59.31;101424.19;5090943;28;800;-64
2021/03/14 11:50:19;;;;;;;;;;;;;;;17.69;59.33;101433.91;5088750;28;1468;-65
2021/03/14 11:52:49;;;;;;;;;;;;;;;17.68;59.36;101423.44;5090243;28;915;-65
2021/03/14 11:55:16;;;;;;;;;;;;;;;17.71;59.28;101426.81;5090606;28;1153;-64
2021/03/14 11:57:42;;;;;;;;;;;;;;;17.87;59.46;101425.22;5091475;28;1146;-64
2021/03/14 12:00:09;;;;;;;;;;;;;;;17.93;59.66;101424.97;5090250;28;1026;-67
2021/03/14 12:02:36;;;;;;;;;;;;;;;18.00;60.09;101430.81;5090471;28;2283;-65
2021/03/14 12:05:03;;;;;;;;;;;;;;;17.99;60.38;101429.97;5109074;28;1221;-65
2021/03/14 12:07:30;;;;;;;;;;;;;;;17.99;59.89;101432.59;5088684;28;1284;-67
2021/03/14 12:09:59;;;;;;;;;;;;;;;17.94;59.77;101431.94;5094076;28;1189;-62
2021/03/14 12:12:25;;;;;;;;;;;;;;;17.91;60.04;101432.09;5109330;28;1318;-64
2021/03/14 12:14:51;;;;;;;;;;;;;;;17.90;59.91;101425.09;5109321;28;917;-66
2021/03/14 12:17:18;;;;;;;;;;;;;;;17.87;60.00;101433.13;5090377;28;1537;-65
2021/03/14 12:19:45;;;;;;;;;;;;;;;17.93;60.50;101427.59;5108807;28;1149;-65
2021/03/14 12:22:11;;;;;;;;;;;;;;;17.94;60.31;101421.41;5108512;28;1913;-66
2021/03/14 12:24:38;;;;;;;;;;;;;;;17.96;60.37;101416.09;5108559;28;1133;-66
2021/03/14 12:27:08;;;;;;;;;;;;;;;17.94;60.49;101408.22;5108368;28;1279;-64
2021/03/14 12:29:35;;;;;;;;;;;;;;;17.95;60.36;101406.47;5090079;28;1066;-67
2021/03/14 12:32:01;;;;;;;;;;;;;;;17.97;60.70;101394.91;5108737;28;1240;-65
2021/03/14 12:34:30;;;;;;;;;;;;;;;17.95;60.70;101388.00;5108416;28;1109;-64
2021/03/14 12:36:56;;;;;;;;;;;;;;;17.93;60.88;101390.69;5108148;28;1306;-65
2021/03/14 12:39:22;;;;;;;;;;;;;;;17.91;60.71;101383.78;5108734;28;968;-66
2021/03/14 12:41:56;;;;;;;;;;;;;;;17.92;60.59;101386.38;5108619;28;1988;-65
2021/03/14 12:44:22;;;;;;;;;;;;;;;17.93;60.82;101382.78;5108328;28;1167;-65
2021/03/14 12:46:50;;;;;;;;;;;;;;;17.92;61.05;101378.47;5072855;28;1372;-64
2021/03/14 12:49:17;;;;;;;;;;;;;;;17.92;60.59;101378.47;5107809;28;1457;-64
2021/03/14 12:51:43;;;;;;;;;;;;;;;17.92;60.90;101378.47;5104323;28;1350;-64
2021/03/14 12:54:10;;;;;;;;;;;;;;;17.93;60.79;101371.41;5087281;28;1281;-65